createdAt,value
2018-05-08T00:01:17.564Z,7.00
2018-05-08T00:03:46.633Z,6.13
2018-05-08T00:06:15.692Z,6.17
2018-05-08T00:08:43.977Z,5.90
2018-05-08T00:11:12.245Z,6.07
2018-05-08T00:13:40.543Z,6.10
2018-05-08T00:16:08.785Z,6.17
2018-05-08T00:18:37.027Z,6.57
2018-05-08T00:21:05.321Z,6.00
2018-05-08T00:23:34.337Z,7.60
2018-05-08T00:26:02.669Z,5.77
2018-05-08T00:28:30.975Z,6.23
2018-05-08T00:30:59.323Z,6.37
2018-05-08T00:33:27.550Z,6.07
2018-05-08T00:35:55.801Z,6.70
2018-05-08T00:38:24.867Z,5.97
2018-05-08T00:40:53.909Z,6.60
2018-05-08T00:43:22.955Z,6.20
2018-05-08T00:45:51.190Z,6.47
2018-05-08T00:48:19.513Z,6.43
2018-05-08T00:50:48.226Z,6.90
2018-05-08T00:53:17.228Z,6.93
2018-05-08T00:55:45.530Z,6.27
2018-05-08T00:58:13.931Z,6.33
2018-05-08T01:00:42.158Z,5.67
2018-05-08T01:03:11.175Z,6.80
2018-05-08T01:05:39.416Z,6.37
2018-05-08T01:08:08.451Z,6.87
2018-05-08T01:10:36.759Z,7.13
2018-05-08T01:13:05.073Z,7.00
2018-05-08T01:15:33.912Z,6.50
2018-05-08T01:18:02.181Z,6.90
2018-05-08T01:20:30.451Z,7.50
2018-05-08T01:22:58.679Z,7.37
2018-05-08T01:25:27.811Z,7.00
2018-05-08T01:27:57.335Z,7.67
2018-05-08T01:30:25.560Z,6.90
2018-05-08T01:32:55.513Z,6.90
2018-05-08T01:35:23.856Z,6.83
2018-05-08T01:37:52.207Z,6.77
2018-05-08T01:40:20.437Z,7.43
2018-05-08T01:42:48.720Z,6.83
2018-05-08T01:45:16.993Z,7.70
2018-05-08T01:47:45.289Z,6.47
2018-05-08T01:50:13.603Z,7.43
2018-05-08T01:52:41.875Z,7.67
2018-05-08T01:55:10.229Z,7.63
2018-05-08T01:57:38.468Z,8.00
2018-05-08T02:00:06.715Z,7.20
2018-05-08T02:02:35.001Z,8.00
2018-05-08T02:05:04.036Z,7.00
2018-05-08T02:07:32.279Z,7.80
2018-05-08T02:10:01.320Z,7.40
2018-05-08T02:12:29.785Z,7.80
2018-05-08T02:14:58.050Z,7.93
2018-05-08T02:17:26.324Z,7.40
2018-05-08T02:19:55.344Z,8.37
2018-05-08T02:22:23.719Z,7.40
2018-05-08T02:24:52.777Z,8.20
2018-05-08T02:27:21.836Z,7.90
2018-05-08T02:29:50.878Z,8.07
2018-05-08T02:32:19.930Z,8.23
2018-05-08T02:34:48.169Z,7.37
2018-05-08T02:37:16.443Z,7.60
2018-05-08T02:39:44.727Z,7.83
2018-05-08T02:42:14.684Z,8.00
2018-05-08T02:44:43.030Z,7.37
2018-05-08T02:47:11.301Z,7.90
2018-05-08T02:49:39.608Z,7.73
2018-05-08T02:52:07.871Z,8.20
2018-05-08T02:54:36.153Z,8.00
2018-05-08T02:57:04.447Z,7.40
2018-05-08T02:59:32.720Z,7.63
2018-05-08T03:02:02.502Z,7.70
2018-05-08T03:04:30.829Z,8.13
2018-05-08T03:06:59.820Z,7.53
2018-05-08T03:09:28.970Z,7.43
2018-05-08T03:11:57.232Z,8.37
2018-05-08T03:14:25.612Z,8.20
2018-05-08T03:16:53.889Z,7.60
2018-05-08T03:19:22.180Z,7.37
2018-05-08T03:21:50.464Z,8.97
2018-05-08T03:24:19.957Z,7.73
2018-05-08T03:26:48.211Z,8.83
2018-05-08T03:29:16.529Z,8.40
2018-05-08T03:31:44.866Z,7.83
2018-05-08T03:34:13.132Z,8.13
2018-05-08T03:36:41.372Z,7.97
2018-05-08T03:39:09.593Z,8.17
2018-05-08T03:41:38.037Z,7.90
2018-05-08T03:44:06.400Z,8.70
2018-05-08T03:46:34.657Z,8.60
2018-05-08T03:49:02.960Z,7.70
2018-05-08T03:51:31.231Z,8.30
2018-05-08T03:53:59.522Z,8.00
2018-05-08T03:56:27.893Z,8.07
2018-05-08T03:58:56.149Z,7.90
2018-05-08T04:01:36.293Z,8.30
2018-05-08T04:04:16.295Z,8.10
2018-05-08T04:06:58.089Z,7.50
2018-05-08T04:09:27.163Z,8.00
2018-05-08T04:11:55.445Z,7.60
2018-05-08T04:14:23.768Z,7.87
2018-05-08T04:16:52.069Z,8.00
2018-05-08T04:19:21.232Z,8.30
2018-05-08T04:21:49.474Z,7.27
2018-05-08T04:24:17.788Z,7.73
2018-05-08T04:26:46.824Z,7.77
2018-05-08T04:29:15.104Z,7.30
2018-05-08T04:31:43.349Z,7.50
2018-05-08T04:34:11.642Z,7.00
2018-05-08T04:36:39.991Z,6.63
2018-05-08T04:39:09.711Z,7.47
2018-05-08T04:41:37.965Z,6.90
2018-05-08T04:44:06.989Z,6.83
2018-05-08T04:46:35.294Z,7.70
2018-05-08T04:49:03.640Z,7.67
2018-05-08T04:51:31.931Z,7.40
2018-05-08T04:54:01.654Z,7.40
2018-05-08T04:56:29.959Z,7.10
2018-05-08T04:58:58.301Z,6.23
2018-05-08T05:01:26.596Z,6.70
2018-05-08T05:03:54.879Z,6.70
2018-05-08T05:06:23.136Z,5.85
2018-05-08T05:08:53.113Z,6.05
2018-05-08T05:11:23.033Z,6.72
2018-05-08T05:13:51.290Z,5.55
2018-05-08T05:16:19.562Z,6.15
2018-05-08T05:18:48.617Z,5.78
2018-05-08T05:21:16.891Z,5.80
2018-05-08T05:23:45.157Z,5.22
2018-05-08T05:26:13.385Z,5.60
2018-05-08T05:28:42.437Z,5.40
2018-05-08T05:31:10.841Z,5.53
2018-05-08T05:33:39.224Z,5.95
2018-05-08T05:36:07.458Z,5.53
2018-05-08T05:38:36.890Z,5.47
2018-05-08T05:41:05.116Z,5.70
2018-05-08T05:43:33.411Z,6.10
2018-05-08T05:46:02.523Z,5.35
2018-05-08T05:48:30.930Z,4.62
2018-05-08T05:50:59.163Z,6.28
2018-05-08T05:53:27.444Z,5.25
2018-05-08T05:55:55.692Z,5.03
2018-05-08T05:58:23.999Z,5.12
2018-05-08T06:00:52.268Z,5.68
2018-05-08T06:03:20.541Z,5.40
2018-05-08T06:05:48.896Z,5.45
2018-05-08T06:10:49.597Z,5.63
2018-05-08T06:13:17.900Z,5.43
2018-05-08T06:15:47.664Z,5.22
2018-05-08T06:18:15.933Z,5.57
2018-05-08T06:20:44.998Z,5.82
2018-05-08T06:23:14.111Z,5.15
2018-05-08T06:25:42.377Z,5.20
2018-05-08T06:28:10.647Z,5.28
2018-05-08T06:30:38.967Z,5.68
2018-05-08T06:33:07.238Z,5.15
2018-05-08T06:35:35.545Z,6.27
2018-05-08T06:38:03.823Z,5.65
2018-05-08T06:40:32.069Z,6.15
2018-05-08T06:43:00.696Z,6.23
2018-05-08T06:45:29.727Z,5.97
2018-05-08T06:47:58.020Z,6.62
2018-05-08T06:50:26.304Z,6.00
2018-05-08T10:46:59.369Z,4.40
2018-05-08T16:10:00.155Z,2.10
2018-05-08T19:00:31.011Z,2.83
2018-05-08T19:23:31.098Z,3.30
2018-05-08T23:20:32.425Z,3.10
